createdAt,value
2019-04-20T00:01:07.476Z,5.17
2019-04-20T00:03:41.283Z,5.10
2019-04-20T00:06:06.991Z,5.23
2019-04-20T00:08:38.233Z,4.90
2019-04-20T00:11:11.690Z,4.53
2019-04-20T00:13:45.418Z,5.03
2019-04-20T00:16:06.223Z,5.10
2019-04-20T00:18:43.160Z,5.03
2019-04-20T00:21:24.670Z,4.53
2019-04-20T00:23:54.760Z,4.73
2019-04-20T00:26:59.598Z,5.17
2019-04-20T00:29:17.668Z,5.03
2019-04-20T00:31:42.776Z,4.73
2019-04-20T00:34:08.012Z,5.07
2019-04-20T00:36:28.999Z,4.53
2019-04-20T00:39:01.385Z,4.80
2019-04-20T00:41:27.820Z,4.70
2019-04-20T00:43:57.745Z,4.90
2019-04-20T00:46:33.976Z,4.57
2019-04-20T00:49:08.872Z,4.50
2019-04-20T00:51:39.521Z,4.57
2019-04-20T00:53:58.779Z,5.03
2019-04-20T00:56:26.635Z,4.43
2019-04-20T00:59:09.280Z,4.77
2019-04-20T01:01:45.688Z,4.73
2019-04-20T01:04:17.542Z,4.80
2019-04-20T01:06:43.812Z,5.30
2019-04-20T01:09:01.654Z,4.07
2019-04-20T01:11:36.423Z,5.00
2019-04-20T01:14:04.475Z,4.93
2019-04-20T01:16:41.239Z,4.40
2019-04-20T01:19:00.577Z,4.10
2019-04-20T01:21:31.789Z,4.30
2019-04-20T01:24:02.905Z,5.47
2019-04-20T01:26:29.445Z,4.00
2019-04-20T01:29:09.038Z,4.40
2019-04-20T01:31:36.432Z,4.50
2019-04-20T01:34:06.244Z,4.80
2019-04-20T01:36:45.743Z,4.13
2019-04-20T01:39:12.223Z,3.73
2019-04-20T01:41:28.573Z,4.37
2019-04-20T01:43:56.994Z,4.30
2019-04-20T01:46:28.375Z,3.87
2019-04-20T01:49:00.160Z,3.97
2019-04-20T01:51:30.470Z,4.70
2019-04-20T01:54:11.778Z,4.20
2019-04-20T01:56:40.338Z,4.10
2019-04-20T01:59:23.009Z,3.70
2019-04-20T02:01:59.287Z,4.20
2019-04-20T02:04:37.288Z,4.03
2019-04-20T02:07:03.309Z,4.77
2019-04-20T02:09:32.633Z,4.50
2019-04-20T02:12:09.297Z,4.07
2019-04-20T02:14:40.051Z,4.20
2019-04-20T02:17:09.575Z,4.40
2019-04-20T02:19:49.229Z,4.13
2019-04-20T02:22:13.322Z,4.07
2019-04-20T02:24:32.044Z,4.00
2019-04-20T02:27:00.402Z,3.70
2019-04-20T02:29:57.052Z,3.87
2019-04-20T02:35:08.575Z,3.90
2019-04-20T02:37:52.353Z,4.10
2019-04-20T02:40:09.143Z,4.40
2019-04-20T02:42:44.636Z,4.30
2019-04-20T02:45:18.708Z,4.70
2019-04-20T02:47:47.402Z,4.80
2019-04-20T02:50:15.122Z,4.90
2019-04-20T02:55:14.409Z,5.00
2019-04-20T02:57:47.837Z,5.07
2019-04-20T03:00:17.845Z,4.77
2019-04-20T03:02:23.681Z,5.07
2019-04-20T03:04:45.803Z,4.90
2019-04-20T03:07:25.085Z,4.53
2019-04-20T03:09:58.505Z,4.83
2019-04-20T03:12:33.389Z,4.57
2019-04-20T03:14:54.028Z,4.10
2019-04-20T03:17:36.506Z,4.73
2019-04-20T03:19:54.981Z,4.37
2019-04-20T03:22:39.565Z,4.20
2019-04-20T03:25:05.135Z,4.20
2019-04-20T03:27:29.249Z,4.10
2019-04-20T03:31:05.699Z,3.60
2019-04-20T03:33:21.118Z,3.80
2019-04-20T03:37:55.334Z,4.33
2019-04-20T03:40:19.322Z,3.70
2019-04-20T03:42:33.029Z,3.50
2019-04-20T03:45:07.637Z,3.70
2019-04-20T03:47:42.553Z,3.77
2019-04-20T03:50:24.439Z,3.70
2019-04-20T03:53:04.168Z,3.70
2019-04-20T03:55:39.713Z,3.73
2019-04-20T03:58:14.315Z,3.63
2019-04-20T04:00:45.771Z,3.50
2019-04-20T04:03:41.020Z,3.80
2019-04-20T04:06:00.842Z,3.43
2019-04-20T04:08:26.607Z,3.70
2019-04-20T04:11:01.485Z,3.67
2019-04-20T04:13:18.748Z,3.77
2019-04-20T04:15:54.556Z,3.40
2019-04-20T04:18:26.045Z,3.90
2019-04-20T04:20:54.127Z,3.60
2019-04-20T04:23:38.116Z,3.40
2019-04-20T04:26:14.712Z,3.13
2019-04-20T04:28:37.179Z,3.47
2019-04-20T04:31:09.014Z,3.37
2019-04-20T04:36:08.900Z,3.17
2019-04-20T04:38:41.916Z,3.50
2019-04-20T04:41:19.667Z,3.20
2019-04-20T04:43:37.235Z,3.30
2019-04-20T04:45:48.866Z,3.17
2019-04-20T04:48:23.565Z,3.23
2019-04-20T04:50:54.528Z,3.33
2019-04-20T04:53:30.392Z,3.27
2019-04-20T04:55:54.680Z,3.27
2019-04-20T04:58:17.491Z,3.37
2019-04-20T05:00:46.764Z,3.50
2019-04-20T05:03:35.365Z,3.47
2019-04-20T05:06:06.673Z,3.00
2019-04-20T05:08:27.432Z,3.70
2019-04-20T05:10:50.105Z,2.97
2019-04-20T05:13:19.926Z,3.07
2019-04-20T05:16:00.435Z,2.77
2019-04-20T05:18:45.144Z,2.93
2019-04-20T05:21:10.808Z,3.40
2019-04-20T05:23:35.333Z,2.93
2019-04-20T05:26:18.344Z,3.10
2019-04-20T05:28:39.760Z,3.47
2019-04-20T05:31:00.992Z,3.00
2019-04-20T05:33:42.503Z,2.93
2019-04-20T05:36:17.590Z,3.10
2019-04-20T05:38:49.932Z,3.23
2019-04-20T05:41:20.138Z,3.03
2019-04-20T05:43:56.321Z,2.77
2019-04-20T05:46:26.180Z,3.27
2019-04-20T05:48:57.881Z,3.50
2019-04-20T05:51:32.173Z,5.53
2019-04-20T05:53:59.080Z,3.70
2019-04-20T05:56:30.750Z,4.20
2019-04-20T05:58:56.818Z,3.70
2019-04-20T06:01:36.325Z,3.93
2019-04-20T06:03:56.819Z,3.90
2019-04-20T06:06:27.435Z,3.97
2019-04-20T06:09:02.389Z,4.07
2019-04-20T06:11:28.210Z,4.47
2019-04-20T06:13:50.580Z,3.90
2019-04-20T06:16:40.374Z,3.80
2019-04-20T06:19:18.742Z,4.40
2019-04-20T06:22:00.989Z,4.67
2019-04-20T06:24:37.812Z,5.20
2019-04-20T06:27:16.027Z,4.93
2019-04-20T06:29:31.213Z,5.63
2019-04-20T06:32:05.141Z,4.77
2019-04-20T06:36:58.381Z,5.03
2019-04-20T06:39:49.114Z,4.10
2019-04-20T06:44:34.289Z,4.07
2019-04-20T06:47:08.997Z,4.23
2019-04-20T06:49:35.514Z,4.10
2019-04-20T06:55:05.530Z,4.10
2019-04-20T06:57:40.357Z,3.70
2019-04-20T07:00:14.170Z,4.27
2019-04-20T07:02:41.503Z,3.60
2019-04-20T07:07:41.876Z,3.77
2019-04-20T07:10:16.355Z,3.70
2019-04-20T07:12:35.587Z,3.97
2019-04-20T07:14:55.429Z,3.63
2019-04-20T07:17:54.737Z,3.97
2019-04-20T07:20:18.438Z,3.60
2019-04-20T07:25:39.044Z,4.10
2019-04-20T07:28:05.890Z,4.33
2019-04-20T07:30:37.324Z,4.00
2019-04-20T07:33:08.737Z,4.40
2019-04-20T07:35:35.674Z,3.43
2019-04-20T07:40:30.175Z,3.30
2019-04-20T07:43:17.157Z,3.80
2019-04-20T07:50:25.227Z,4.17
2019-04-20T07:52:54.422Z,3.93
2019-04-20T07:55:39.067Z,3.90
2019-04-20T07:57:57.519Z,3.90
2019-04-20T08:00:46.655Z,3.47
2019-04-20T08:03:29.633Z,3.50
2019-04-20T08:05:47.009Z,3.40
2019-04-20T08:08:25.344Z,3.70
2019-04-20T08:10:51.913Z,3.50
2019-04-20T08:13:35.437Z,4.13
2019-04-20T08:15:57.172Z,3.37
2019-04-20T08:18:27.820Z,3.33
2019-04-20T08:20:57.686Z,3.60
2019-04-20T08:23:23.223Z,4.13
2019-04-20T08:25:46.788Z,4.10
2019-04-20T08:28:16.728Z,3.90
2019-04-20T08:30:57.205Z,4.27
2019-04-20T08:33:30.930Z,4.00
2019-04-20T08:36:09.169Z,3.93
2019-04-20T08:39:01.278Z,3.60
2019-04-20T08:40:57.472Z,3.87
2019-04-20T08:43:43.720Z,3.40
2019-04-20T08:46:05.270Z,3.73
2019-04-20T08:48:32.894Z,3.93
2019-04-20T08:51:03.478Z,3.50
2019-04-20T08:53:36.859Z,3.77
2019-04-20T08:55:55.343Z,3.90
2019-04-20T08:58:13.721Z,4.43
2019-04-20T09:00:48.641Z,4.53
2019-04-20T09:03:17.978Z,4.93
2019-04-20T09:05:52.204Z,5.00
2019-04-20T09:08:18.879Z,4.77
2019-04-20T09:10:59.824Z,4.47
2019-04-20T09:13:21.056Z,6.00
2019-04-20T09:15:42.576Z,11.10
2019-04-20T09:18:24.175Z,7.50
2019-04-20T09:20:52.911Z,7.50
2019-04-20T09:23:35.085Z,6.50
2019-04-20T09:26:04.768Z,6.00
2019-04-20T09:28:28.454Z,5.10
2019-04-20T09:31:09.220Z,5.67
2019-04-20T09:33:54.139Z,5.23
2019-04-20T09:36:23.957Z,5.33
2019-04-20T09:39:10.405Z,4.67
2019-04-20T09:41:56.497Z,4.20
2019-04-20T09:44:00.403Z,4.20
2019-04-20T09:46:30.924Z,3.57
2019-04-20T09:49:02.750Z,3.67
2019-04-20T09:51:46.249Z,3.57
2019-04-20T09:54:17.566Z,3.63
2019-04-20T09:56:49.672Z,3.77
2019-04-20T09:59:16.406Z,3.73
2019-04-20T10:01:36.511Z,3.27
2019-04-20T10:03:59.285Z,3.67
2019-04-20T10:06:30.725Z,2.97
2019-04-20T10:09:00.457Z,3.00
2019-04-20T10:11:27.998Z,3.50
2019-04-20T10:13:56.493Z,3.50
2019-04-20T10:16:26.017Z,3.03
2019-04-20T10:18:55.307Z,3.30
2019-04-20T10:21:23.990Z,3.83
2019-04-20T10:23:52.568Z,4.00
2019-04-20T10:26:20.990Z,3.90
2019-04-20T10:28:49.790Z,3.40
2019-04-20T10:31:18.190Z,3.57
2019-04-20T10:33:46.445Z,3.47
2019-04-20T10:36:22.109Z,3.33
2019-04-20T10:38:50.696Z,3.80
2019-04-20T10:41:29.739Z,3.47
2019-04-20T10:43:49.065Z,3.60
2019-04-20T10:46:17.424Z,3.07
2019-04-20T10:48:49.177Z,3.27
2019-04-20T10:51:15.686Z,3.53
2019-04-20T10:53:44.514Z,3.30
2019-04-20T10:56:13.612Z,3.60
2019-04-20T10:58:43.304Z,3.87
2019-04-20T11:01:11.671Z,3.20
2019-04-20T11:03:40.731Z,3.33
2019-04-20T11:06:09.074Z,4.20
2019-04-20T11:08:38.348Z,3.90
2019-04-20T11:11:12.694Z,4.33
2019-04-20T11:13:37.454Z,4.53
2019-04-20T11:16:06.425Z,5.23
2019-04-20T11:18:35.501Z,4.50
2019-04-20T11:21:04.036Z,4.17
2019-04-20T11:23:32.287Z,4.20
2019-04-20T11:26:00.558Z,4.90
2019-04-20T11:28:30.198Z,4.10
2019-04-20T11:30:58.596Z,3.27
2019-04-20T11:33:27.843Z,3.90
2019-04-20T11:35:57.098Z,3.93
2019-04-20T11:38:26.109Z,4.10
2019-04-20T11:41:04.167Z,4.07
2019-04-20T11:43:25.976Z,3.90
2019-04-20T11:45:54.580Z,3.43
2019-04-20T11:48:23.348Z,4.00
2019-04-20T11:50:51.733Z,3.33
2019-04-20T11:53:21.452Z,3.90
2019-04-20T11:55:49.937Z,3.40
2019-04-20T11:58:18.205Z,3.13
2019-04-20T12:00:56.046Z,3.83
2019-04-20T12:03:28.159Z,4.20
2019-04-20T12:05:53.824Z,3.77
2019-04-20T12:08:20.786Z,3.60
2019-04-20T12:10:54.101Z,3.93
2019-04-20T12:13:20.444Z,3.23
2019-04-20T12:15:49.703Z,3.37
2019-04-20T12:18:18.126Z,3.93
2019-04-20T12:20:47.073Z,3.37
2019-04-20T12:23:16.056Z,2.87
2019-04-20T12:25:45.006Z,3.53
2019-04-20T12:28:15.750Z,3.03
2019-04-20T12:30:44.234Z,3.20
2019-04-20T12:33:13.622Z,3.50
2019-04-20T12:35:42.544Z,3.63
2019-04-20T12:38:10.985Z,3.43
2019-04-20T12:40:39.928Z,3.60
2019-04-20T12:43:08.989Z,3.03
2019-04-20T12:45:37.806Z,3.27
2019-04-20T12:48:06.323Z,3.00
2019-04-20T12:50:35.285Z,2.93
2019-04-20T12:53:04.471Z,3.63
2019-04-20T12:55:32.854Z,3.23
2019-04-20T12:58:01.117Z,3.07
2019-04-20T13:00:49.615Z,3.73
2019-04-20T13:03:17.677Z,3.13
2019-04-20T13:05:45.935Z,3.53
2019-04-20T13:08:23.242Z,2.60
2019-04-20T13:10:46.564Z,3.17
2019-04-20T13:13:28.723Z,2.90
2019-04-20T13:16:08.218Z,2.97
2019-04-20T13:18:45.448Z,3.03
2019-04-20T13:21:13.805Z,2.80
2019-04-20T13:23:42.785Z,2.83
2019-04-20T13:26:12.652Z,2.73
2019-04-20T13:28:41.310Z,3.03
2019-04-20T13:31:09.699Z,2.70
2019-04-20T13:33:39.067Z,2.67
2019-04-20T13:36:08.145Z,2.97
2019-04-20T13:38:38.200Z,2.77
2019-04-20T13:41:06.551Z,2.90
2019-04-20T13:43:35.527Z,3.00
2019-04-20T13:46:04.952Z,2.40
2019-04-20T13:48:33.284Z,2.53
2019-04-20T13:51:02.391Z,2.33
2019-04-20T13:53:30.859Z,2.50
2019-04-20T13:55:59.293Z,2.63
2019-04-20T13:58:45.705Z,2.87
2019-04-20T14:01:16.856Z,2.70
2019-04-20T14:03:47.133Z,2.40
2019-04-20T14:06:16.569Z,2.90
2019-04-20T14:08:45.427Z,2.37
2019-04-20T14:11:13.726Z,2.77
2019-04-20T14:13:47.209Z,2.67
2019-04-20T14:16:14.227Z,2.30
2019-04-20T14:18:42.914Z,2.40
2019-04-20T14:21:12.224Z,2.57
2019-04-20T14:23:41.116Z,2.77
2019-04-20T14:26:09.559Z,2.77
2019-04-20T14:28:38.770Z,2.33
2019-04-20T14:31:07.872Z,2.43
2019-04-20T14:33:36.973Z,2.80
2019-04-20T14:36:05.413Z,2.20
2019-04-20T14:38:34.019Z,2.63
2019-04-20T14:41:02.397Z,2.10
2019-04-20T14:43:32.898Z,2.70
2019-04-20T14:46:00.905Z,2.93
2019-04-20T14:48:30.969Z,2.53
2019-04-20T14:50:59.417Z,2.47
2019-04-20T14:53:27.737Z,2.40
2019-04-20T14:55:56.010Z,2.50
2019-04-20T14:58:42.176Z,2.60
2019-04-20T15:01:24.723Z,2.47
2019-04-20T15:04:00.198Z,2.20
2019-04-20T15:06:23.334Z,2.07
2019-04-20T15:08:52.587Z,2.13
2019-04-20T15:11:20.990Z,2.00
2019-04-20T15:13:49.306Z,2.20
2019-04-20T15:16:17.579Z,2.37
2019-04-20T15:18:49.119Z,2.03
2019-04-20T15:21:29.049Z,2.33
2019-04-20T15:23:57.826Z,2.03
2019-04-20T15:26:26.603Z,1.97
2019-04-20T15:28:55.041Z,2.23
2019-04-20T15:31:24.074Z,1.90
2019-04-20T15:33:52.813Z,2.20
2019-04-20T15:36:22.185Z,2.20
2019-04-20T15:38:51.350Z,1.90
2019-04-20T15:41:20.809Z,2.10
2019-04-20T15:43:49.243Z,2.57
2019-04-20T15:46:17.546Z,2.40
2019-04-20T15:48:46.173Z,2.10
2019-04-20T15:51:14.537Z,2.17
2019-04-20T15:53:43.908Z,2.37
2019-04-20T15:56:12.344Z,2.37
2019-04-20T15:58:40.741Z,2.30
2019-04-20T16:01:10.423Z,2.57
2019-04-20T16:03:41.283Z,2.27
2019-04-20T16:06:11.531Z,3.00
2019-04-20T16:08:41.938Z,2.57
2019-04-20T16:11:11.338Z,2.80
2019-04-20T16:13:44.035Z,2.60
2019-04-20T16:16:10.096Z,2.40
2019-04-20T16:18:39.183Z,2.47
2019-04-20T16:21:13.593Z,2.47
2019-04-20T16:23:48.540Z,2.27
2019-04-20T16:26:19.814Z,2.93
2019-04-20T16:28:48.252Z,2.20
2019-04-20T16:31:16.508Z,2.43
2019-04-20T16:33:44.774Z,2.10
2019-04-20T16:36:14.432Z,2.63
2019-04-20T16:38:45.604Z,2.20
2019-04-20T16:41:14.668Z,3.00
2019-04-20T16:43:45.058Z,3.10
2019-04-20T16:46:13.175Z,2.97
2019-04-20T16:48:42.132Z,3.90
2019-04-20T16:51:10.984Z,3.33
2019-04-20T16:53:39.651Z,2.93
2019-04-20T16:56:08.619Z,3.63
2019-04-20T16:58:37.882Z,3.30
2019-04-20T17:01:07.709Z,2.73
2019-04-20T17:03:48.896Z,3.77
2019-04-20T17:06:06.486Z,3.40
2019-04-20T17:08:34.835Z,3.27
2019-04-20T17:11:03.490Z,2.80
2019-04-20T17:13:40.571Z,3.03
2019-04-20T17:16:02.266Z,2.90
2019-04-20T17:18:31.842Z,3.77
2019-04-20T17:21:07.266Z,2.60
2019-04-20T17:23:31.119Z,2.97
2019-04-20T17:26:01.985Z,2.40
2019-04-20T17:28:35.247Z,2.70
2019-04-20T17:31:05.324Z,2.40
2019-04-20T17:33:49.544Z,2.50
2019-04-20T17:36:15.025Z,2.43
2019-04-20T17:38:45.984Z,2.30
2019-04-20T17:41:23.680Z,3.07
2019-04-20T17:43:57.582Z,2.77
2019-04-20T17:46:23.740Z,2.87
2019-04-20T17:48:58.798Z,3.13
2019-04-20T17:51:31.473Z,3.33
2019-04-20T17:53:49.148Z,2.83
2019-04-20T17:56:12.010Z,2.73
2019-04-20T17:58:41.344Z,2.77
2019-04-20T18:01:41.302Z,3.00
2019-04-20T18:04:44.250Z,2.83
2019-04-20T18:06:54.922Z,3.10
2019-04-20T18:09:38.685Z,3.30
2019-04-20T18:11:49.972Z,3.33
2019-04-20T18:14:32.795Z,3.60
2019-04-20T18:17:04.928Z,3.20
2019-04-20T18:19:22.228Z,3.67
2019-04-20T18:21:48.009Z,2.70
2019-04-20T18:24:38.732Z,3.80
2019-04-20T18:27:03.022Z,3.53
2019-04-20T18:29:37.310Z,3.40
2019-04-20T18:31:49.207Z,3.67
2019-04-20T18:34:34.589Z,3.33
2019-04-20T18:37:07.674Z,4.27
2019-04-20T18:39:40.917Z,3.47
2019-04-20T18:42:13.808Z,3.43
2019-04-20T18:44:54.624Z,3.80
2019-04-20T18:47:23.920Z,3.20
2019-04-20T18:49:41.946Z,3.70
2019-04-20T18:52:03.857Z,3.63
2019-04-20T18:54:38.884Z,3.53
2019-04-20T18:57:03.446Z,4.17
2019-04-20T18:59:40.589Z,3.00
2019-04-20T19:02:06.736Z,3.27
2019-04-20T19:04:33.153Z,3.40
2019-04-20T19:07:01.709Z,4.30
2019-04-20T19:09:31.659Z,3.83
2019-04-20T19:12:03.873Z,4.53
2019-04-20T19:14:48.851Z,4.17
2019-04-20T19:17:44.135Z,4.30
2019-04-20T19:20:01.386Z,4.43
2019-04-20T19:22:28.611Z,4.70
2019-04-20T19:24:57.988Z,4.67
2019-04-20T19:27:36.997Z,6.43
2019-04-20T19:30:11.780Z,4.73
2019-04-20T19:32:43.490Z,4.47
2019-04-20T19:35:04.575Z,4.10
2019-04-20T19:37:34.768Z,4.90
2019-04-20T19:40:08.125Z,4.43
2019-04-20T19:42:39.683Z,4.70
2019-04-20T19:45:25.100Z,4.03
2019-04-20T19:47:42.725Z,4.20
2019-04-20T19:50:25.252Z,4.60
2019-04-20T19:52:51.454Z,4.30
2019-04-20T19:55:14.345Z,3.70
2019-04-20T19:57:45.233Z,4.50
2019-04-20T19:59:58.188Z,4.43
2019-04-20T20:02:27.593Z,3.83
2019-04-20T20:05:01.615Z,3.67
2019-04-20T20:07:30.890Z,4.23
2019-04-20T20:10:00.483Z,4.53
2019-04-20T20:12:27.394Z,4.43
2019-04-20T20:14:57.280Z,4.23
2019-04-20T20:17:44.337Z,4.80
2019-04-20T20:20:23.331Z,4.70
2019-04-20T20:22:35.205Z,5.93
2019-04-20T20:24:56.807Z,5.80
2019-04-20T20:27:33.998Z,5.47
2019-04-20T20:30:08.136Z,5.37
2019-04-20T20:32:43.704Z,4.40
2019-04-20T20:35:05.610Z,3.97
2019-04-20T20:37:34.665Z,4.97
2019-04-20T20:40:07.848Z,4.00
2019-04-20T20:42:32.981Z,4.70
2019-04-20T20:45:09.641Z,4.57
2019-04-20T20:48:01.977Z,4.33
2019-04-20T20:50:33.180Z,5.10
2019-04-20T20:52:43.713Z,4.83
2019-04-20T20:55:06.983Z,4.83
2019-04-20T20:57:39.971Z,6.03
2019-04-20T21:00:03.711Z,4.60
2019-04-20T21:02:40.158Z,4.97
2019-04-20T21:04:57.663Z,4.97
2019-04-20T21:07:26.691Z,6.20
2019-04-20T21:09:56.156Z,4.80
2019-04-20T21:12:25.720Z,5.20
2019-04-20T21:14:55.223Z,5.10
2019-04-20T21:17:27.404Z,5.00
2019-04-20T21:20:14.423Z,4.10
2019-04-20T21:22:46.567Z,4.60
2019-04-20T21:24:55.285Z,4.47
2019-04-20T21:27:23.918Z,3.97
2019-04-20T21:29:56.190Z,4.20
2019-04-20T21:32:23.676Z,4.27
2019-04-20T21:35:00.023Z,4.37
2019-04-20T21:37:24.878Z,4.07
2019-04-20T21:39:57.978Z,3.53
2019-04-20T21:42:25.241Z,3.93
2019-04-20T21:44:57.675Z,4.07
2019-04-20T21:47:30.212Z,4.17
2019-04-20T21:50:05.783Z,4.27
2019-04-20T21:52:29.911Z,3.73
2019-04-20T21:54:52.211Z,4.40
2019-04-20T21:57:21.963Z,4.37
2019-04-20T21:59:53.773Z,3.57
2019-04-20T22:02:29.733Z,3.70
2019-04-20T22:04:51.591Z,3.50
2019-04-20T22:07:20.755Z,3.93
2019-04-20T22:09:53.119Z,3.67
2019-04-20T22:12:20.110Z,4.07
2019-04-20T22:14:57.936Z,4.20
2019-04-20T22:17:23.655Z,4.00
2019-04-20T22:20:02.650Z,3.53
2019-04-20T22:22:38.288Z,4.33
2019-04-20T22:25:02.688Z,3.57
2019-04-20T22:27:22.423Z,3.90
2019-04-20T22:29:48.535Z,3.90
2019-04-20T22:32:20.061Z,3.50
2019-04-20T22:34:55.977Z,3.53
2019-04-20T22:37:22.993Z,4.00
2019-04-20T22:39:52.879Z,3.53
2019-04-20T22:42:21.606Z,3.40
2019-04-20T22:44:57.547Z,4.07
2019-04-20T22:47:24.633Z,4.20
2019-04-20T22:50:09.621Z,3.13
2019-04-20T22:52:34.780Z,3.50
2019-04-20T22:55:12.823Z,3.37
2019-04-20T22:57:39.056Z,3.73
2019-04-20T23:00:00.618Z,3.53
2019-04-20T23:02:21.683Z,3.70
2019-04-20T23:04:50.785Z,4.30
2019-04-20T23:07:19.178Z,3.30
2019-04-20T23:09:52.884Z,3.50
2019-04-20T23:12:21.389Z,3.60
2019-04-20T23:14:47.411Z,3.90
2019-04-20T23:17:18.432Z,3.30
2019-04-20T23:19:50.960Z,3.60
2019-04-20T23:22:17.443Z,3.53
2019-04-20T23:24:46.721Z,3.53
2019-04-20T23:27:23.376Z,3.60
2019-04-20T23:29:46.859Z,3.53
2019-04-20T23:32:17.477Z,3.63
2019-04-20T23:34:50.002Z,3.40
2019-04-20T23:37:20.488Z,3.33
2019-04-20T23:39:47.719Z,3.17
2019-04-20T23:42:19.861Z,3.80
2019-04-20T23:44:54.218Z,3.10
2019-04-20T23:47:25.544Z,3.63
2019-04-20T23:50:12.356Z,3.20
2019-04-20T23:52:49.661Z,3.40
2019-04-20T23:55:02.031Z,3.60
2019-04-20T23:57:26.045Z,3.20
2019-04-20T23:59:55.022Z,3.30
